Minnetonka, Minnesota
Current Conditions -  °F | °C
As of 12:53 PM on Saturday 20 Dec 2014 (Local Time) from KFCM Reporting Station
Overcast Overcast  
Wind Chill: 23°   Ceiling: 1300
Heat Index: 32°   Visibility: 10mi
Dew Point: 26°   Wind: 12mph
Humidity: 79%   Direction: 200°SSW
Pressure: 30.11"   Gusts: NA
Location:  44.94°N, 93.47°W
Report Text: KFCM 201853Z 20010KT 10SM OVC013 00/M03 A3011 RMK AO2 SLP208 T00001033
Loading
Personal Weather Stations






























Interactive Weather Map New forecast layout! Learn more

10-Day Weather Forecast

Advertisements
Track Severe Weather on mobile